sensor_id;sensor_type;location;lat;lon;timestamp;P1;durP1;ratioP1;P2;durP2;ratioP2
59302;SDS011;45074;52.764;6.896;2023-04-03T00:01:38;5.55;;;2.08;;
59302;SDS011;45074;52.764;6.896;2023-04-03T00:04:04;4.25;;;1.80;;
59302;SDS011;45074;52.764;6.896;2023-04-03T00:06:31;2.67;;;1.65;;
59302;SDS011;45074;52.764;6.896;2023-04-03T00:08:57;4.28;;;2.00;;
59302;SDS011;45074;52.764;6.896;2023-04-03T00:11:23;5.85;;;1.90;;
59302;SDS011;45074;52.764;6.896;2023-04-03T00:13:50;4.65;;;1.67;;
59302;SDS011;45074;52.764;6.896;2023-04-03T00:16:16;4.00;;;1.60;;
59302;SDS011;45074;52.764;6.896;2023-04-03T00:18:42;4.03;;;1.90;;
59302;SDS011;45074;52.764;6.896;2023-04-03T00:21:09;6.25;;;2.25;;
59302;SDS011;45074;52.764;6.896;2023-04-03T00:23:36;6.15;;;2.00;;
59302;SDS011;45074;52.764;6.896;2023-04-03T00:26:02;5.25;;;1.90;;
59302;SDS011;45074;52.764;6.896;2023-04-03T00:28:29;4.38;;;1.98;;
59302;SDS011;45074;52.764;6.896;2023-04-03T00:30:55;4.72;;;1.60;;
59302;SDS011;45074;52.764;6.896;2023-04-03T00:33:20;4.50;;;1.73;;
59302;SDS011;45074;52.764;6.896;2023-04-03T00:35:47;6.75;;;2.03;;
59302;SDS011;45074;52.764;6.896;2023-04-03T00:38:13;4.30;;;1.70;;
59302;SDS011;45074;52.764;6.896;2023-04-03T00:40:42;3.10;;;1.67;;
59302;SDS011;45074;52.764;6.896;2023-04-03T00:43:13;4.97;;;2.20;;
59302;SDS011;45074;52.764;6.896;2023-04-03T00:45:42;4.25;;;1.65;;
59302;SDS011;45074;52.764;6.896;2023-04-03T00:48:11;4.65;;;1.77;;
59302;SDS011;45074;52.764;6.896;2023-04-03T00:50:58;5.50;;;1.85;;
59302;SDS011;45074;52.764;6.896;2023-04-03T00:53:28;3.95;;;1.83;;
59302;SDS011;45074;52.764;6.896;2023-04-03T00:56:05;4.93;;;1.90;;
59302;SDS011;45074;52.764;6.896;2023-04-03T00:58:36;3.53;;;1.90;;
59302;SDS011;45074;52.764;6.896;2023-04-03T01:01:06;5.15;;;2.08;;
59302;SDS011;45074;52.764;6.896;2023-04-03T01:03:35;5.20;;;1.70;;
59302;SDS011;45074;52.764;6.896;2023-04-03T01:06:01;6.10;;;2.30;;
59302;SDS011;45074;52.764;6.896;2023-04-03T01:08:27;4.90;;;1.90;;
59302;SDS011;45074;52.764;6.896;2023-04-03T01:10:53;4.85;;;1.65;;
59302;SDS011;45074;52.764;6.896;2023-04-03T01:13:25;5.30;;;2.13;;
59302;SDS011;45074;52.764;6.896;2023-04-03T01:15:52;5.65;;;2.10;;
59302;SDS011;45074;52.764;6.896;2023-04-03T01:18:19;6.20;;;1.98;;
59302;SDS011;45074;52.764;6.896;2023-04-03T01:25:53;6.47;;;2.20;;
59302;SDS011;45074;52.764;6.896;2023-04-03T01:28:25;6.00;;;2.03;;
59302;SDS011;45074;52.764;6.896;2023-04-03T01:31:02;5.05;;;2.00;;
59302;SDS011;45074;52.764;6.896;2023-04-03T01:33:28;5.38;;;2.00;;
59302;SDS011;45074;52.764;6.896;2023-04-03T01:35:54;5.18;;;2.10;;
59302;SDS011;45074;52.764;6.896;2023-04-03T01:38:20;4.38;;;1.80;;
59302;SDS011;45074;52.764;6.896;2023-04-03T01:40:45;5.50;;;2.00;;
59302;SDS011;45074;52.764;6.896;2023-04-03T01:43:11;6.35;;;2.22;;
59302;SDS011;45074;52.764;6.896;2023-04-03T01:45:37;5.20;;;2.00;;
59302;SDS011;45074;52.764;6.896;2023-04-03T01:48:04;5.13;;;2.35;;
59302;SDS011;45074;52.764;6.896;2023-04-03T01:50:30;5.38;;;2.20;;
59302;SDS011;45074;52.764;6.896;2023-04-03T01:52:56;4.18;;;2.10;;
59302;SDS011;45074;52.764;6.896;2023-04-03T01:55:22;5.10;;;2.17;;
59302;SDS011;45074;52.764;6.896;2023-04-03T01:57:48;5.38;;;2.10;;
59302;SDS011;45074;52.764;6.896;2023-04-03T02:00:14;5.95;;;2.08;;
59302;SDS011;45074;52.764;6.896;2023-04-03T02:02:40;5.40;;;2.17;;
59302;SDS011;45074;52.764;6.896;2023-04-03T02:05:06;5.75;;;2.17;;
59302;SDS011;45074;52.764;6.896;2023-04-03T02:07:32;6.28;;;2.13;;
59302;SDS011;45074;52.764;6.896;2023-04-03T02:09:58;4.68;;;2.28;;
59302;SDS011;45074;52.764;6.896;2023-04-03T02:12:24;4.72;;;2.00;;
59302;SDS011;45074;52.764;6.896;2023-04-03T02:14:50;5.78;;;2.40;;
59302;SDS011;45074;52.764;6.896;2023-04-03T02:17:16;6.15;;;2.30;;
59302;SDS011;45074;52.764;6.896;2023-04-03T02:19:42;3.42;;;2.00;;
59302;SDS011;45074;52.764;6.896;2023-04-03T02:22:09;5.63;;;2.17;;
59302;SDS011;45074;52.764;6.896;2023-04-03T02:24:35;5.60;;;2.38;;
59302;SDS011;45074;52.764;6.896;2023-04-03T02:27:01;5.80;;;2.13;;
59302;SDS011;45074;52.764;6.896;2023-04-03T02:29:27;7.18;;;2.40;;
59302;SDS011;45074;52.764;6.896;2023-04-03T02:31:53;4.45;;;2.10;;
59302;SDS011;45074;52.764;6.896;2023-04-03T02:34:19;5.60;;;2.00;;
59302;SDS011;45074;52.764;6.896;2023-04-03T02:36:45;6.75;;;2.30;;
59302;SDS011;45074;52.764;6.896;2023-04-03T02:39:11;4.90;;;1.98;;
59302;SDS011;45074;52.764;6.896;2023-04-03T02:41:37;5.10;;;2.47;;
59302;SDS011;45074;52.764;6.896;2023-04-03T02:44:04;6.68;;;2.47;;
59302;SDS011;45074;52.764;6.896;2023-04-03T02:46:31;8.60;;;2.63;;
59302;SDS011;45074;52.764;6.896;2023-04-03T02:48:57;4.95;;;2.28;;
59302;SDS011;45074;52.764;6.896;2023-04-03T02:51:23;5.80;;;2.33;;
59302;SDS011;45074;52.764;6.896;2023-04-03T02:53:49;6.35;;;2.75;;
59302;SDS011;45074;52.764;6.896;2023-04-03T02:56:15;4.90;;;2.50;;
59302;SDS011;45074;52.764;6.896;2023-04-03T02:58:43;5.18;;;2.28;;
59302;SDS011;45074;52.764;6.896;2023-04-03T03:01:09;6.43;;;2.58;;
59302;SDS011;45074;52.764;6.896;2023-04-03T03:03:35;6.53;;;2.38;;
59302;SDS011;45074;52.764;6.896;2023-04-03T03:06:03;4.78;;;2.10;;
59302;SDS011;45074;52.764;6.896;2023-04-03T03:08:32;5.85;;;2.55;;
59302;SDS011;45074;52.764;6.896;2023-04-03T03:10:58;7.25;;;2.30;;
59302;SDS011;45074;52.764;6.896;2023-04-03T03:13:25;5.13;;;2.65;;
59302;SDS011;45074;52.764;6.896;2023-04-03T03:15:51;5.63;;;2.63;;
59302;SDS011;45074;52.764;6.896;2023-04-03T03:18:17;5.80;;;2.58;;
59302;SDS011;45074;52.764;6.896;2023-04-03T03:20:42;6.72;;;2.40;;
59302;SDS011;45074;52.764;6.896;2023-04-03T03:23:08;7.20;;;2.70;;
59302;SDS011;45074;52.764;6.896;2023-04-03T03:25:41;5.35;;;2.30;;
59302;SDS011;45074;52.764;6.896;2023-04-03T03:28:07;4.70;;;2.33;;
59302;SDS011;45074;52.764;6.896;2023-04-03T03:30:33;6.95;;;2.50;;
59302;SDS011;45074;52.764;6.896;2023-04-03T03:33:00;7.35;;;2.60;;
59302;SDS011;45074;52.764;6.896;2023-04-03T03:35:26;6.97;;;2.50;;
59302;SDS011;45074;52.764;6.896;2023-04-03T03:37:52;7.55;;;3.33;;
59302;SDS011;45074;52.764;6.896;2023-04-03T03:40:18;5.93;;;2.33;;
59302;SDS011;45074;52.764;6.896;2023-04-03T03:42:44;6.97;;;2.40;;
59302;SDS011;45074;52.764;6.896;2023-04-03T03:45:10;5.05;;;2.35;;
59302;SDS011;45074;52.764;6.896;2023-04-03T03:47:36;6.10;;;2.58;;
59302;SDS011;45074;52.764;6.896;2023-04-03T03:50:02;6.75;;;2.33;;
59302;SDS011;45074;52.764;6.896;2023-04-03T03:52:28;5.65;;;2.47;;
59302;SDS011;45074;52.764;6.896;2023-04-03T03:54:55;4.75;;;2.42;;
59302;SDS011;45074;52.764;6.896;2023-04-03T03:57:21;6.35;;;2.85;;
59302;SDS011;45074;52.764;6.896;2023-04-03T03:59:47;7.28;;;3.13;;
59302;SDS011;45074;52.764;6.896;2023-04-03T04:02:14;8.68;;;2.72;;
59302;SDS011;45074;52.764;6.896;2023-04-03T04:04:40;6.28;;;2.78;;
59302;SDS011;45074;52.764;6.896;2023-04-03T04:07:06;6.50;;;3.22;;
59302;SDS011;45074;52.764;6.896;2023-04-03T04:09:32;6.63;;;2.67;;
59302;SDS011;45074;52.764;6.896;2023-04-03T04:11:58;7.65;;;2.75;;
59302;SDS011;45074;52.764;6.896;2023-04-03T04:14:24;6.82;;;2.95;;
59302;SDS011;45074;52.764;6.896;2023-04-03T04:16:50;5.80;;;2.80;;
59302;SDS011;45074;52.764;6.896;2023-04-03T04:19:16;6.20;;;2.67;;
59302;SDS011;45074;52.764;6.896;2023-04-03T04:21:42;5.97;;;2.63;;
59302;SDS011;45074;52.764;6.896;2023-04-03T04:24:08;9.32;;;3.72;;
59302;SDS011;45074;52.764;6.896;2023-04-03T04:26:34;6.35;;;2.75;;
59302;SDS011;45074;52.764;6.896;2023-04-03T04:29:00;8.27;;;3.08;;
59302;SDS011;45074;52.764;6.896;2023-04-03T04:31:26;6.78;;;2.90;;
59302;SDS011;45074;52.764;6.896;2023-04-03T04:33:52;8.13;;;3.00;;
59302;SDS011;45074;52.764;6.896;2023-04-03T04:36:18;8.00;;;3.33;;
59302;SDS011;45074;52.764;6.896;2023-04-03T04:38:44;5.88;;;2.80;;
59302;SDS011;45074;52.764;6.896;2023-04-03T04:41:10;8.15;;;3.15;;
59302;SDS011;45074;52.764;6.896;2023-04-03T04:43:36;5.80;;;2.80;;
59302;SDS011;45074;52.764;6.896;2023-04-03T04:46:07;9.02;;;2.95;;
59302;SDS011;45074;52.764;6.896;2023-04-03T04:48:33;7.03;;;3.03;;
59302;SDS011;45074;52.764;6.896;2023-04-03T04:50:59;6.63;;;3.13;;
59302;SDS011;45074;52.764;6.896;2023-04-03T04:53:25;8.20;;;3.17;;
59302;SDS011;45074;52.764;6.896;2023-04-03T04:55:52;6.45;;;3.00;;
59302;SDS011;45074;52.764;6.896;2023-04-03T04:58:18;8.73;;;3.30;;
59302;SDS011;45074;52.764;6.896;2023-04-03T05:00:44;7.15;;;3.50;;
59302;SDS011;45074;52.764;6.896;2023-04-03T05:03:10;9.75;;;3.65;;
59302;SDS011;45074;52.764;6.896;2023-04-03T05:05:36;6.53;;;3.00;;
59302;SDS011;45074;52.764;6.896;2023-04-03T05:08:03;9.00;;;3.35;;
59302;SDS011;45074;52.764;6.896;2023-04-03T05:10:29;9.30;;;3.47;;
59302;SDS011;45074;52.764;6.896;2023-04-03T05:12:56;6.28;;;3.15;;
59302;SDS011;45074;52.764;6.896;2023-04-03T05:15:22;5.80;;;2.80;;
59302;SDS011;45074;52.764;6.896;2023-04-03T05:17:48;8.35;;;3.35;;
59302;SDS011;45074;52.764;6.896;2023-04-03T05:20:15;5.82;;;3.05;;
59302;SDS011;45074;52.764;6.896;2023-04-03T05:22:41;9.30;;;3.13;;
59302;SDS011;45074;52.764;6.896;2023-04-03T05:25:07;7.38;;;3.15;;
59302;SDS011;45074;52.764;6.896;2023-04-03T05:27:33;8.20;;;3.38;;
59302;SDS011;45074;52.764;6.896;2023-04-03T05:29:58;5.40;;;2.92;;
59302;SDS011;45074;52.764;6.896;2023-04-03T05:32:25;7.97;;;3.10;;
59302;SDS011;45074;52.764;6.896;2023-04-03T05:34:52;6.82;;;3.17;;
59302;SDS011;45074;52.764;6.896;2023-04-03T05:37:18;7.72;;;3.25;;
59302;SDS011;45074;52.764;6.896;2023-04-03T05:39:45;6.93;;;2.90;;
59302;SDS011;45074;52.764;6.896;2023-04-03T05:42:11;7.18;;;2.80;;
59302;SDS011;45074;52.764;6.896;2023-04-03T05:44:37;8.43;;;2.90;;
59302;SDS011;45074;52.764;6.896;2023-04-03T05:47:03;5.65;;;2.67;;
59302;SDS011;45074;52.764;6.896;2023-04-03T05:49:30;6.43;;;3.00;;
59302;SDS011;45074;52.764;6.896;2023-04-03T05:51:55;10.15;;;3.15;;
59302;SDS011;45074;52.764;6.896;2023-04-03T05:54:23;7.30;;;2.60;;
59302;SDS011;45074;52.764;6.896;2023-04-03T05:56:50;6.80;;;2.88;;
59302;SDS011;45074;52.764;6.896;2023-04-03T05:59:16;6.72;;;2.58;;
59302;SDS011;45074;52.764;6.896;2023-04-03T06:01:43;7.35;;;3.10;;
59302;SDS011;45074;52.764;6.896;2023-04-03T06:04:08;10.00;;;3.13;;
59302;SDS011;45074;52.764;6.896;2023-04-03T06:09:20;7.00;;;3.38;;
59302;SDS011;45074;52.764;6.896;2023-04-03T06:11:47;8.48;;;2.67;;
59302;SDS011;45074;52.764;6.896;2023-04-03T06:14:13;7.20;;;2.80;;
59302;SDS011;45074;52.764;6.896;2023-04-03T06:16:40;6.10;;;2.58;;
59302;SDS011;45074;52.764;6.896;2023-04-03T06:19:07;7.85;;;2.90;;
59302;SDS011;45074;52.764;6.896;2023-04-03T06:21:33;9.90;;;2.97;;
59302;SDS011;45074;52.764;6.896;2023-04-03T06:24:00;8.38;;;3.00;;
59302;SDS011;45074;52.764;6.896;2023-04-03T06:26:27;7.00;;;2.80;;
59302;SDS011;45074;52.764;6.896;2023-04-03T06:28:53;7.45;;;2.60;;
59302;SDS011;45074;52.764;6.896;2023-04-03T06:31:19;5.25;;;2.50;;
59302;SDS011;45074;52.764;6.896;2023-04-03T06:33:45;7.38;;;2.38;;
59302;SDS011;45074;52.764;6.896;2023-04-03T06:36:11;6.32;;;2.28;;
59302;SDS011;45074;52.764;6.896;2023-04-03T06:38:37;7.32;;;2.30;;
59302;SDS011;45074;52.764;6.896;2023-04-03T06:41:03;6.80;;;2.20;;
59302;SDS011;45074;52.764;6.896;2023-04-03T06:43:29;4.13;;;2.13;;
59302;SDS011;45074;52.764;6.896;2023-04-03T06:45:56;6.90;;;2.35;;
59302;SDS011;45074;52.764;6.896;2023-04-03T06:48:22;6.53;;;2.55;;
59302;SDS011;45074;52.764;6.896;2023-04-03T06:50:48;6.85;;;2.35;;
59302;SDS011;45074;52.764;6.896;2023-04-03T06:53:15;8.90;;;2.65;;
59302;SDS011;45074;52.764;6.896;2023-04-03T06:55:41;6.47;;;2.80;;
59302;SDS011;45074;52.764;6.896;2023-04-03T06:58:07;7.13;;;2.55;;
59302;SDS011;45074;52.764;6.896;2023-04-03T07:00:34;5.18;;;2.15;;
59302;SDS011;45074;52.764;6.896;2023-04-03T07:03:00;5.50;;;2.25;;
59302;SDS011;45074;52.764;6.896;2023-04-03T07:05:25;6.55;;;2.25;;
59302;SDS011;45074;52.764;6.896;2023-04-03T07:07:52;7.82;;;2.22;;
59302;SDS011;45074;52.764;6.896;2023-04-03T07:10:18;7.97;;;2.30;;
59302;SDS011;45074;52.764;6.896;2023-04-03T07:12:44;8.13;;;2.75;;
59302;SDS011;45074;52.764;6.896;2023-04-03T07:15:10;6.57;;;2.38;;
59302;SDS011;45074;52.764;6.896;2023-04-03T07:17:38;5.07;;;2.05;;
59302;SDS011;45074;52.764;6.896;2023-04-03T07:20:04;6.85;;;2.10;;
59302;SDS011;45074;52.764;6.896;2023-04-03T07:22:30;5.93;;;2.20;;
59302;SDS011;45074;52.764;6.896;2023-04-03T07:24:56;7.25;;;2.08;;
59302;SDS011;45074;52.764;6.896;2023-04-03T07:27:23;5.15;;;2.17;;
59302;SDS011;45074;52.764;6.896;2023-04-03T07:29:50;7.00;;;2.25;;
59302;SDS011;45074;52.764;6.896;2023-04-03T07:32:16;7.05;;;2.35;;
59302;SDS011;45074;52.764;6.896;2023-04-03T07:34:42;5.80;;;2.00;;
59302;SDS011;45074;52.764;6.896;2023-04-03T07:37:09;7.25;;;1.85;;
59302;SDS011;45074;52.764;6.896;2023-04-03T07:39:35;5.90;;;1.83;;
59302;SDS011;45074;52.764;6.896;2023-04-03T07:42:01;6.05;;;2.00;;
59302;SDS011;45074;52.764;6.896;2023-04-03T07:44:27;6.15;;;2.08;;
59302;SDS011;45074;52.764;6.896;2023-04-03T07:46:53;6.13;;;2.10;;
59302;SDS011;45074;52.764;6.896;2023-04-03T07:49:21;6.15;;;2.45;;
59302;SDS011;45074;52.764;6.896;2023-04-03T07:51:49;6.95;;;2.00;;
59302;SDS011;45074;52.764;6.896;2023-04-03T07:54:15;6.70;;;1.80;;
59302;SDS011;45074;52.764;6.896;2023-04-03T07:56:41;4.75;;;1.85;;
59302;SDS011;45074;52.764;6.896;2023-04-03T07:59:08;8.85;;;1.90;;
59302;SDS011;45074;52.764;6.896;2023-04-03T08:01:34;5.15;;;1.75;;
59302;SDS011;45074;52.764;6.896;2023-04-03T08:04:00;6.30;;;1.90;;
59302;SDS011;45074;52.764;6.896;2023-04-03T08:06:27;4.03;;;1.50;;
59302;SDS011;45074;52.764;6.896;2023-04-03T08:08:55;4.20;;;1.80;;
59302;SDS011;45074;52.764;6.896;2023-04-03T08:11:21;4.60;;;1.67;;
59302;SDS011;45074;52.764;6.896;2023-04-03T08:13:48;3.30;;;1.50;;
59302;SDS011;45074;52.764;6.896;2023-04-03T08:16:18;5.03;;;1.73;;
59302;SDS011;45074;52.764;6.896;2023-04-03T08:18:47;4.57;;;1.52;;
59302;SDS011;45074;52.764;6.896;2023-04-03T08:21:13;4.30;;;1.60;;
59302;SDS011;45074;52.764;6.896;2023-04-03T08:23:39;4.43;;;1.65;;
59302;SDS011;45074;52.764;6.896;2023-04-03T08:26:10;5.85;;;1.63;;
59302;SDS011;45074;52.764;6.896;2023-04-03T08:28:37;7.05;;;1.73;;
59302;SDS011;45074;52.764;6.896;2023-04-03T08:31:09;5.72;;;1.60;;
59302;SDS011;45074;52.764;6.896;2023-04-03T08:33:37;8.73;;;1.90;;
59302;SDS011;45074;52.764;6.896;2023-04-03T08:36:03;7.50;;;1.83;;
59302;SDS011;45074;52.764;6.896;2023-04-03T08:38:30;5.43;;;1.63;;
59302;SDS011;45074;52.764;6.896;2023-04-03T08:41:01;6.00;;;1.70;;
59302;SDS011;45074;52.764;6.896;2023-04-03T08:49:28;4.57;;;1.67;;
59302;SDS011;45074;52.764;6.896;2023-04-03T08:52:02;3.95;;;1.55;;
59302;SDS011;45074;52.764;6.896;2023-04-03T08:54:34;4.50;;;1.58;;
59302;SDS011;45074;52.764;6.896;2023-04-03T08:57:06;4.80;;;1.60;;
59302;SDS011;45074;52.764;6.896;2023-04-03T08:59:33;5.93;;;1.38;;
59302;SDS011;45074;52.764;6.896;2023-04-03T09:02:03;4.55;;;1.30;;
59302;SDS011;45074;52.764;6.896;2023-04-03T09:04:48;4.60;;;1.60;;
59302;SDS011;45074;52.764;6.896;2023-04-03T09:07:16;4.28;;;1.40;;
59302;SDS011;45074;52.764;6.896;2023-04-03T09:09:48;3.92;;;1.65;;
59302;SDS011;45074;52.764;6.896;2023-04-03T09:15:18;6.47;;;1.50;;
59302;SDS011;45074;52.764;6.896;2023-04-03T09:23:17;6.05;;;1.45;;
59302;SDS011;45074;52.764;6.896;2023-04-03T09:25:54;4.07;;;1.40;;
59302;SDS011;45074;52.764;6.896;2023-04-03T09:28:26;3.50;;;1.27;;
59302;SDS011;45074;52.764;6.896;2023-04-03T09:30:52;4.45;;;1.45;;
59302;SDS011;45074;52.764;6.896;2023-04-03T09:33:18;4.32;;;1.40;;
59302;SDS011;45074;52.764;6.896;2023-04-03T09:35:46;3.28;;;1.20;;
59302;SDS011;45074;52.764;6.896;2023-04-03T09:40:40;3.03;;;1.15;;
59302;SDS011;45074;52.764;6.896;2023-04-03T09:45:46;3.13;;;1.05;;
59302;SDS011;45074;52.764;6.896;2023-04-03T09:58:46;2.78;;;1.10;;
59302;SDS011;45074;52.764;6.896;2023-04-03T10:04:10;4.72;;;1.20;;
59302;SDS011;45074;52.764;6.896;2023-04-03T10:06:48;3.10;;;1.00;;
59302;SDS011;45074;52.764;6.896;2023-04-03T10:12:03;2.97;;;1.20;;
59302;SDS011;45074;52.764;6.896;2023-04-03T10:14:32;3.72;;;1.38;;
59302;SDS011;45074;52.764;6.896;2023-04-03T10:19:33;4.90;;;1.45;;
59302;SDS011;45074;52.764;6.896;2023-04-03T10:22:12;2.78;;;1.10;;
59302;SDS011;45074;52.764;6.896;2023-04-03T10:27:18;4.22;;;1.40;;
59302;SDS011;45074;52.764;6.896;2023-04-03T10:38:13;6.22;;;1.35;;
59302;SDS011;45074;52.764;6.896;2023-04-03T10:41:07;5.07;;;1.48;;
59302;SDS011;45074;52.764;6.896;2023-04-03T10:43:44;2.90;;;1.27;;
59302;SDS011;45074;52.764;6.896;2023-04-03T10:46:25;3.92;;;1.20;;
59302;SDS011;45074;52.764;6.896;2023-04-03T10:49:25;3.35;;;1.15;;
59302;SDS011;45074;52.764;6.896;2023-04-03T10:52:12;2.83;;;1.15;;
59302;SDS011;45074;52.764;6.896;2023-04-03T10:55:02;3.65;;;1.27;;
59302;SDS011;45074;52.764;6.896;2023-04-03T10:57:55;3.88;;;1.20;;
59302;SDS011;45074;52.764;6.896;2023-04-03T11:03:05;2.53;;;1.17;;
59302;SDS011;45074;52.764;6.896;2023-04-03T11:05:45;4.18;;;1.30;;
59302;SDS011;45074;52.764;6.896;2023-04-03T11:08:21;4.20;;;1.30;;
59302;SDS011;45074;52.764;6.896;2023-04-03T11:10:51;3.33;;;1.27;;
59302;SDS011;45074;52.764;6.896;2023-04-03T11:13:26;3.85;;;1.20;;
59302;SDS011;45074;52.764;6.896;2023-04-03T11:16:07;2.95;;;1.17;;
59302;SDS011;45074;52.764;6.896;2023-04-03T11:18:43;4.53;;;1.50;;
59302;SDS011;45074;52.764;6.896;2023-04-03T11:21:34;4.40;;;1.50;;
59302;SDS011;45074;52.764;6.896;2023-04-03T11:24:05;3.63;;;1.38;;
59302;SDS011;45074;52.764;6.896;2023-04-03T11:26:36;4.38;;;1.50;;
59302;SDS011;45074;52.764;6.896;2023-04-03T11:29:07;1.70;;;1.05;;
59302;SDS011;45074;52.764;6.896;2023-04-03T11:34:42;3.78;;;1.40;;
59302;SDS011;45074;52.764;6.896;2023-04-03T11:37:57;3.72;;;1.45;;
59302;SDS011;45074;52.764;6.896;2023-04-03T11:40:18;5.38;;;1.48;;
59302;SDS011;45074;52.764;6.896;2023-04-03T11:42:48;3.97;;;1.50;;
59302;SDS011;45074;52.764;6.896;2023-04-03T11:48:01;3.60;;;1.30;;
59302;SDS011;45074;52.764;6.896;2023-04-03T11:52:58;3.63;;;1.27;;
59302;SDS011;45074;52.764;6.896;2023-04-03T12:05:50;6.70;;;2.03;;
59302;SDS011;45074;52.764;6.896;2023-04-03T12:08:21;3.63;;;1.33;;
59302;SDS011;45074;52.764;6.896;2023-04-03T12:13:33;2.92;;;1.25;;
59302;SDS011;45074;52.764;6.896;2023-04-03T12:16:00;2.92;;;1.27;;
59302;SDS011;45074;52.764;6.896;2023-04-03T12:18:40;3.28;;;1.30;;
59302;SDS011;45074;52.764;6.896;2023-04-03T12:22:04;4.60;;;1.45;;
59302;SDS011;45074;52.764;6.896;2023-04-03T12:24:28;4.10;;;1.40;;
59302;SDS011;45074;52.764;6.896;2023-04-03T12:39:55;3.78;;;1.45;;
59302;SDS011;45074;52.764;6.896;2023-04-03T12:45:21;4.95;;;1.60;;
59302;SDS011;45074;52.764;6.896;2023-04-03T12:47:49;3.33;;;1.30;;
59302;SDS011;45074;52.764;6.896;2023-04-03T12:50:27;4.57;;;1.80;;
59302;SDS011;45074;52.764;6.896;2023-04-03T12:53:06;5.75;;;1.30;;
59302;SDS011;45074;52.764;6.896;2023-04-03T12:55:37;3.65;;;1.20;;
59302;SDS011;45074;52.764;6.896;2023-04-03T12:58:16;3.60;;;1.30;;
59302;SDS011;45074;52.764;6.896;2023-04-03T13:01:02;3.38;;;1.40;;
59302;SDS011;45074;52.764;6.896;2023-04-03T13:03:29;3.42;;;1.20;;
59302;SDS011;45074;52.764;6.896;2023-04-03T13:06:00;5.40;;;1.35;;
59302;SDS011;45074;52.764;6.896;2023-04-03T13:08:28;4.15;;;1.30;;
59302;SDS011;45074;52.764;6.896;2023-04-03T13:11:00;4.72;;;1.60;;
59302;SDS011;45074;52.764;6.896;2023-04-03T13:13:29;5.45;;;1.42;;
59302;SDS011;45074;52.764;6.896;2023-04-03T13:15:55;2.38;;;1.13;;
59302;SDS011;45074;52.764;6.896;2023-04-03T13:20:47;5.03;;;1.30;;
59302;SDS011;45074;52.764;6.896;2023-04-03T13:23:14;3.58;;;1.25;;
59302;SDS011;45074;52.764;6.896;2023-04-03T13:25:43;3.97;;;1.30;;
59302;SDS011;45074;52.764;6.896;2023-04-03T13:28:12;3.42;;;1.48;;
59302;SDS011;45074;52.764;6.896;2023-04-03T13:30:41;2.85;;;1.15;;
59302;SDS011;45074;52.764;6.896;2023-04-03T13:33:21;4.43;;;1.25;;
59302;SDS011;45074;52.764;6.896;2023-04-03T13:35:54;3.03;;;1.20;;
59302;SDS011;45074;52.764;6.896;2023-04-03T13:38:30;4.25;;;1.48;;
59302;SDS011;45074;52.764;6.896;2023-04-03T13:40:59;3.83;;;1.27;;
59302;SDS011;45074;52.764;6.896;2023-04-03T13:43:28;2.57;;;1.40;;
59302;SDS011;45074;52.764;6.896;2023-04-03T13:48:35;3.42;;;1.50;;
59302;SDS011;45074;52.764;6.896;2023-04-03T13:51:04;3.28;;;1.50;;
59302;SDS011;45074;52.764;6.896;2023-04-03T13:53:43;4.20;;;1.50;;
59302;SDS011;45074;52.764;6.896;2023-04-03T13:56:30;3.33;;;1.30;;
59302;SDS011;45074;52.764;6.896;2023-04-03T14:04:15;3.13;;;1.27;;
59302;SDS011;45074;52.764;6.896;2023-04-03T14:06:52;2.85;;;1.20;;
59302;SDS011;45074;52.764;6.896;2023-04-03T14:09:19;5.90;;;1.33;;
59302;SDS011;45074;52.764;6.896;2023-04-03T14:11:46;2.63;;;1.13;;
59302;SDS011;45074;52.764;6.896;2023-04-03T14:14:16;3.08;;;1.20;;
59302;SDS011;45074;52.764;6.896;2023-04-03T14:16:46;4.10;;;1.50;;
59302;SDS011;45074;52.764;6.896;2023-04-03T14:19:34;3.92;;;1.52;;
59302;SDS011;45074;52.764;6.896;2023-04-03T14:22:05;3.30;;;1.50;;
59302;SDS011;45074;52.764;6.896;2023-04-03T14:24:53;4.80;;;1.42;;
59302;SDS011;45074;52.764;6.896;2023-04-03T14:27:26;3.65;;;1.60;;
59302;SDS011;45074;52.764;6.896;2023-04-03T14:29:54;3.70;;;1.70;;
59302;SDS011;45074;52.764;6.896;2023-04-03T14:32:22;3.58;;;1.40;;
59302;SDS011;45074;52.764;6.896;2023-04-03T14:34:49;4.90;;;1.50;;
59302;SDS011;45074;52.764;6.896;2023-04-03T14:37:18;3.97;;;1.23;;
59302;SDS011;45074;52.764;6.896;2023-04-03T14:39:49;2.97;;;1.27;;
59302;SDS011;45074;52.764;6.896;2023-04-03T14:42:26;3.20;;;1.27;;
59302;SDS011;45074;52.764;6.896;2023-04-03T14:44:57;4.13;;;1.60;;
59302;SDS011;45074;52.764;6.896;2023-04-03T14:47:25;4.57;;;1.60;;
59302;SDS011;45074;52.764;6.896;2023-04-03T14:49:53;5.38;;;1.85;;
59302;SDS011;45074;52.764;6.896;2023-04-03T14:52:21;4.53;;;1.90;;
59302;SDS011;45074;52.764;6.896;2023-04-03T14:54:50;3.08;;;1.50;;
59302;SDS011;45074;52.764;6.896;2023-04-03T14:57:16;6.10;;;2.10;;
59302;SDS011;45074;52.764;6.896;2023-04-03T14:59:45;4.85;;;1.77;;
59302;SDS011;45074;52.764;6.896;2023-04-03T15:05:00;4.18;;;1.70;;
59302;SDS011;45074;52.764;6.896;2023-04-03T15:07:29;4.47;;;1.73;;
59302;SDS011;45074;52.764;6.896;2023-04-03T15:09:58;4.53;;;1.83;;
59302;SDS011;45074;52.764;6.896;2023-04-03T15:12:45;5.13;;;1.77;;
59302;SDS011;45074;52.764;6.896;2023-04-03T15:15:11;4.13;;;2.00;;
59302;SDS011;45074;52.764;6.896;2023-04-03T15:17:37;4.22;;;1.73;;
59302;SDS011;45074;52.764;6.896;2023-04-03T15:20:10;2.83;;;1.30;;
59302;SDS011;45074;52.764;6.896;2023-04-03T15:22:41;4.05;;;1.50;;
59302;SDS011;45074;52.764;6.896;2023-04-03T15:25:07;3.97;;;1.50;;
59302;SDS011;45074;52.764;6.896;2023-04-03T15:27:33;4.70;;;1.60;;
59302;SDS011;45074;52.764;6.896;2023-04-03T15:30:00;5.70;;;1.70;;
59302;SDS011;45074;52.764;6.896;2023-04-03T15:32:26;4.40;;;1.83;;
59302;SDS011;45074;52.764;6.896;2023-04-03T15:34:51;5.18;;;2.45;;
59302;SDS011;45074;52.764;6.896;2023-04-03T15:37:19;4.03;;;1.95;;
59302;SDS011;45074;52.764;6.896;2023-04-03T15:39:45;4.78;;;1.75;;
59302;SDS011;45074;52.764;6.896;2023-04-03T15:42:11;4.63;;;1.70;;
59302;SDS011;45074;52.764;6.896;2023-04-03T15:44:37;3.70;;;1.83;;
59302;SDS011;45074;52.764;6.896;2023-04-03T15:47:04;3.53;;;1.70;;
59302;SDS011;45074;52.764;6.896;2023-04-03T15:49:30;4.50;;;1.88;;
59302;SDS011;45074;52.764;6.896;2023-04-03T15:51:58;3.95;;;1.80;;
59302;SDS011;45074;52.764;6.896;2023-04-03T15:54:24;4.55;;;1.80;;
59302;SDS011;45074;52.764;6.896;2023-04-03T15:56:50;3.00;;;1.63;;
59302;SDS011;45074;52.764;6.896;2023-04-03T15:59:16;4.00;;;1.60;;
59302;SDS011;45074;52.764;6.896;2023-04-03T16:01:42;3.83;;;1.58;;
59302;SDS011;45074;52.764;6.896;2023-04-03T16:04:08;5.25;;;1.98;;
59302;SDS011;45074;52.764;6.896;2023-04-03T16:06:35;6.13;;;2.20;;
59302;SDS011;45074;52.764;6.896;2023-04-03T16:09:01;5.35;;;2.10;;
59302;SDS011;45074;52.764;6.896;2023-04-03T16:11:27;5.50;;;2.33;;
59302;SDS011;45074;52.764;6.896;2023-04-03T16:13:54;4.60;;;2.22;;
59302;SDS011;45074;52.764;6.896;2023-04-03T16:16:20;3.63;;;1.63;;
59302;SDS011;45074;52.764;6.896;2023-04-03T16:18:46;4.55;;;1.90;;
59302;SDS011;45074;52.764;6.896;2023-04-03T16:21:13;3.65;;;1.60;;
59302;SDS011;45074;52.764;6.896;2023-04-03T16:23:40;3.95;;;1.70;;
59302;SDS011;45074;52.764;6.896;2023-04-03T16:26:06;5.70;;;2.03;;
59302;SDS011;45074;52.764;6.896;2023-04-03T16:28:32;5.00;;;2.08;;
59302;SDS011;45074;52.764;6.896;2023-04-03T16:30:59;4.20;;;2.20;;
59302;SDS011;45074;52.764;6.896;2023-04-03T16:33:26;5.72;;;2.25;;
59302;SDS011;45074;52.764;6.896;2023-04-03T16:35:52;2.47;;;1.52;;
59302;SDS011;45074;52.764;6.896;2023-04-03T16:38:18;3.75;;;1.80;;
59302;SDS011;45074;52.764;6.896;2023-04-03T16:40:47;5.40;;;1.90;;
59302;SDS011;45074;52.764;6.896;2023-04-03T16:43:13;4.45;;;1.88;;
59302;SDS011;45074;52.764;6.896;2023-04-03T16:45:40;3.95;;;1.67;;
59302;SDS011;45074;52.764;6.896;2023-04-03T16:48:06;3.92;;;1.60;;